CheckWX is a tool to help pilots better visualize weather data.  It is not intended as a substitute for an official pre-flight weather briefing.

18:52:11 UTC

DAUG METAR
Noumérat - Moufdi Zakaria Airport
Ghardaïa, Algeria
Current

52 mins ago

DAUG 221800Z 00000KT CAVOK 17/M02 Q1025
Observed
Feb-22 @ 18:00 UTC
Visibility
10,000+ meters
Flight Rules
VFR
Cloud Levels
  • Clear skies
Temperature
17°C / 63°F
Dewpoint
-2°C / 28°F
Humidity
27%
Altimeter
30.27" Hg
Pressure
1024.92 hPa
Previous

2 hours ago

DAUG 221700Z 00000KT CAVOK 19/M03 Q1025
Observed
Feb-22 @ 17:00 UTC
Visibility
10,000+ meters
Flight Rules
VFR
Cloud Levels
  • Clear skies
Temperature
19°C / 66°F
Dewpoint
-3°C / 27°F
Humidity
22%
Altimeter
30.27" Hg
Pressure
1024.92 hPa
Previous

3 hours ago

DAUG 221600Z 00000KT CAVOK 19/M02 Q1025
Observed
Feb-22 @ 16:00 UTC
Visibility
10,000+ meters
Flight Rules
VFR
Cloud Levels
  • Clear skies
Temperature
19°C / 66°F
Dewpoint
-2°C / 28°F
Humidity
24%
Altimeter
30.27" Hg
Pressure
1024.92 hPa